sensor_id;sensor_type;location;lat;lon;timestamp;pressure;altitude;pressure_sealevel;temperature;humidity
10006;BME280;5042;42.626;23.382;2023-02-19T00:00:09;94649.78;;;8.05;80.90
10006;BME280;5042;42.626;23.382;2023-02-19T00:02:36;94652.88;;;8.08;81.41
10006;BME280;5042;42.626;23.382;2023-02-19T00:05:05;94655.03;;;7.89;83.17
10006;BME280;5042;42.626;23.382;2023-02-19T00:07:31;94649.69;;;7.74;84.49
10006;BME280;5042;42.626;23.382;2023-02-19T00:09:58;94640.53;;;7.78;85.00
10006;BME280;5042;42.626;23.382;2023-02-19T00:12:25;94646.09;;;7.75;86.70
10006;BME280;5042;42.626;23.382;2023-02-19T00:14:53;94648.38;;;7.70;87.35
10006;BME280;5042;42.626;23.382;2023-02-19T00:17:21;94632.38;;;7.73;85.60
10006;BME280;5042;42.626;23.382;2023-02-19T00:19:48;94633.00;;;7.83;86.51
10006;BME280;5042;42.626;23.382;2023-02-19T00:22:16;94635.78;;;7.90;83.53
10006;BME280;5042;42.626;23.382;2023-02-19T00:24:42;94639.38;;;7.80;84.53
10006;BME280;5042;42.626;23.382;2023-02-19T00:27:09;94635.47;;;7.84;86.67
10006;BME280;5042;42.626;23.382;2023-02-19T00:29:36;94640.69;;;7.93;83.74
10006;BME280;5042;42.626;23.382;2023-02-19T00:32:03;94642.16;;;7.87;84.64
10006;BME280;5042;42.626;23.382;2023-02-19T00:34:30;94627.63;;;7.84;84.30
10006;BME280;5042;42.626;23.382;2023-02-19T00:36:57;94627.66;;;7.76;85.86
10006;BME280;5042;42.626;23.382;2023-02-19T00:39:25;94618.03;;;7.69;86.47
10006;BME280;5042;42.626;23.382;2023-02-19T00:41:51;94610.34;;;7.75;85.78
10006;BME280;5042;42.626;23.382;2023-02-19T00:44:18;94620.66;;;7.60;86.25
10006;BME280;5042;42.626;23.382;2023-02-19T00:46:46;94627.50;;;7.53;87.37
10006;BME280;5042;42.626;23.382;2023-02-19T00:49:16;94633.53;;;7.54;87.55
10006;BME280;5042;42.626;23.382;2023-02-19T00:51:43;94612.34;;;7.57;87.17
10006;BME280;5042;42.626;23.382;2023-02-19T00:54:10;94622.28;;;7.53;87.70
10006;BME280;5042;42.626;23.382;2023-02-19T00:56:39;94617.72;;;7.47;88.89
10006;BME280;5042;42.626;23.382;2023-02-19T00:59:06;94609.28;;;7.45;88.64
10006;BME280;5042;42.626;23.382;2023-02-19T01:01:32;94611.53;;;7.40;89.59
10006;BME280;5042;42.626;23.382;2023-02-19T01:03:59;94601.78;;;7.34;90.38
10006;BME280;5042;42.626;23.382;2023-02-19T01:06:26;94604.56;;;7.24;91.44
10006;BME280;5042;42.626;23.382;2023-02-19T01:08:55;94611.22;;;7.10;93.73
10006;BME280;5042;42.626;23.382;2023-02-19T01:11:21;94609.44;;;7.03;95.03
10006;BME280;5042;42.626;23.382;2023-02-19T01:13:49;94606.66;;;7.04;96.02
10006;BME280;5042;42.626;23.382;2023-02-19T01:16:18;94609.06;;;6.89;95.62
10006;BME280;5042;42.626;23.382;2023-02-19T01:18:46;94548.78;;;6.68;94.44
10006;BME280;5042;42.626;23.382;2023-02-19T01:21:15;94586.13;;;6.93;95.01
10006;BME280;5042;42.626;23.382;2023-02-19T01:23:43;94590.34;;;7.02;94.44
10006;BME280;5042;42.626;23.382;2023-02-19T01:26:12;94597.88;;;7.05;93.66
10006;BME280;5042;42.626;23.382;2023-02-19T01:28:39;94597.53;;;7.00;95.35
10006;BME280;5042;42.626;23.382;2023-02-19T01:31:10;94613.16;;;7.08;94.64
10006;BME280;5042;42.626;23.382;2023-02-19T01:33:38;94615.44;;;7.03;95.39
10006;BME280;5042;42.626;23.382;2023-02-19T01:36:05;94622.63;;;7.01;95.25
10006;BME280;5042;42.626;23.382;2023-02-19T01:38:32;94617.53;;;6.83;96.66
10006;BME280;5042;42.626;23.382;2023-02-19T01:41:04;94617.00;;;6.71;96.97
10006;BME280;5042;42.626;23.382;2023-02-19T01:43:32;94633.84;;;6.93;96.89
10006;BME280;5042;42.626;23.382;2023-02-19T01:45:59;94633.53;;;6.88;96.77
10006;BME280;5042;42.626;23.382;2023-02-19T01:48:30;94640.16;;;6.83;96.30
10006;BME280;5042;42.626;23.382;2023-02-19T01:51:02;94648.31;;;6.79;96.91
10006;BME280;5042;42.626;23.382;2023-02-19T01:53:35;94659.06;;;6.85;96.81
10006;BME280;5042;42.626;23.382;2023-02-19T01:56:04;94670.44;;;6.67;98.98
10006;BME280;5042;42.626;23.382;2023-02-19T01:58:33;94652.66;;;6.63;99.67
10006;BME280;5042;42.626;23.382;2023-02-19T02:01:03;94639.53;;;6.38;100.00
10006;BME280;5042;42.626;23.382;2023-02-19T02:03:51;94652.47;;;6.56;100.00
10006;BME280;5042;42.626;23.382;2023-02-19T02:06:20;94638.44;;;6.49;99.53
10006;BME280;5042;42.626;23.382;2023-02-19T02:08:50;94641.06;;;6.57;99.33
10006;BME280;5042;42.626;23.382;2023-02-19T02:11:35;94638.91;;;6.36;100.00
10006;BME280;5042;42.626;23.382;2023-02-19T02:14:02;94649.16;;;6.37;100.00
10006;BME280;5042;42.626;23.382;2023-02-19T02:16:33;94611.75;;;6.04;100.00
10006;BME280;5042;42.626;23.382;2023-02-19T02:19:18;94663.94;;;6.29;100.00
10006;BME280;5042;42.626;23.382;2023-02-19T02:21:58;94644.66;;;6.13;100.00
10006;BME280;5042;42.626;23.382;2023-02-19T02:24:40;94647.13;;;6.23;100.00
10006;BME280;5042;42.626;23.382;2023-02-19T02:27:29;94646.34;;;6.31;100.00
10006;BME280;5042;42.626;23.382;2023-02-19T02:30:10;94648.59;;;6.26;100.00
10006;BME280;5042;42.626;23.382;2023-02-19T02:32:43;94646.19;;;6.24;100.00
10006;BME280;5042;42.626;23.382;2023-02-19T02:35:20;94636.31;;;6.44;100.00
10006;BME280;5042;42.626;23.382;2023-02-19T02:37:49;94644.66;;;6.48;100.00
10006;BME280;5042;42.626;23.382;2023-02-19T02:40:19;94652.81;;;6.61;100.00
10006;BME280;5042;42.626;23.382;2023-02-19T02:42:46;94643.75;;;6.82;98.68
10006;BME280;5042;42.626;23.382;2023-02-19T02:45:28;94645.56;;;6.81;98.66
10006;BME280;5042;42.626;23.382;2023-02-19T02:51:00;94623.69;;;6.66;98.22
10006;BME280;5042;42.626;23.382;2023-02-19T02:53:34;94644.72;;;6.72;99.49
10006;BME280;5042;42.626;23.382;2023-02-19T02:56:20;94628.41;;;6.62;100.00
10006;BME280;5042;42.626;23.382;2023-02-19T02:58:48;94627.13;;;6.74;99.64
10006;BME280;5042;42.626;23.382;2023-02-19T03:01:21;94622.41;;;6.78;98.17
10006;BME280;5042;42.626;23.382;2023-02-19T03:04:08;94623.53;;;6.75;97.53
10006;BME280;5042;42.626;23.382;2023-02-19T03:06:38;94637.59;;;6.91;96.75
10006;BME280;5042;42.626;23.382;2023-02-19T03:09:10;94637.59;;;6.99;96.00
10006;BME280;5042;42.626;23.382;2023-02-19T03:11:40;94643.09;;;6.79;97.73
10006;BME280;5042;42.626;23.382;2023-02-19T03:14:30;94649.78;;;6.82;98.00
10006;BME280;5042;42.626;23.382;2023-02-19T03:17:23;94643.44;;;6.85;97.48
10006;BME280;5042;42.626;23.382;2023-02-19T03:20:12;94651.72;;;6.72;98.62
10006;BME280;5042;42.626;23.382;2023-02-19T03:22:41;94639.25;;;6.49;100.00
10006;BME280;5042;42.626;23.382;2023-02-19T03:25:13;94666.47;;;6.55;100.00
10006;BME280;5042;42.626;23.382;2023-02-19T03:28:00;94667.91;;;6.49;100.00
10006;BME280;5042;42.626;23.382;2023-02-19T03:30:31;94680.13;;;6.49;100.00
10006;BME280;5042;42.626;23.382;2023-02-19T03:33:03;94663.28;;;6.35;100.00
10006;BME280;5042;42.626;23.382;2023-02-19T03:35:34;94682.06;;;6.47;100.00
10006;BME280;5042;42.626;23.382;2023-02-19T03:38:06;94656.16;;;6.45;100.00
10006;BME280;5042;42.626;23.382;2023-02-19T03:40:43;94700.34;;;6.55;100.00
10006;BME280;5042;42.626;23.382;2023-02-19T03:43:16;94685.53;;;6.55;100.00
10006;BME280;5042;42.626;23.382;2023-02-19T03:45:54;94699.00;;;6.51;100.00
10006;BME280;5042;42.626;23.382;2023-02-19T03:48:29;94696.34;;;6.43;100.00
10006;BME280;5042;42.626;23.382;2023-02-19T03:51:06;94683.63;;;6.31;100.00
10006;BME280;5042;42.626;23.382;2023-02-19T03:53:38;94688.47;;;6.26;100.00
10006;BME280;5042;42.626;23.382;2023-02-19T03:56:14;94703.91;;;6.20;100.00
10006;BME280;5042;42.626;23.382;2023-02-19T03:58:48;94699.50;;;6.20;100.00
10006;BME280;5042;42.626;23.382;2023-02-19T04:01:20;94705.19;;;6.15;100.00
10006;BME280;5042;42.626;23.382;2023-02-19T04:03:55;94701.09;;;6.13;100.00
10006;BME280;5042;42.626;23.382;2023-02-19T04:06:25;94708.94;;;5.95;100.00
10006;BME280;5042;42.626;23.382;2023-02-19T04:08:55;94713.91;;;5.88;100.00
10006;BME280;5042;42.626;23.382;2023-02-19T04:11:23;94714.56;;;5.90;100.00
10006;BME280;5042;42.626;23.382;2023-02-19T04:13:55;94655.06;;;5.43;100.00
10006;BME280;5042;42.626;23.382;2023-02-19T04:16:27;94717.50;;;5.87;100.00
10006;BME280;5042;42.626;23.382;2023-02-19T04:18:59;94684.81;;;5.67;100.00
10006;BME280;5042;42.626;23.382;2023-02-19T04:21:29;94718.03;;;5.73;100.00
10006;BME280;5042;42.626;23.382;2023-02-19T04:23:58;94724.72;;;5.76;100.00
10006;BME280;5042;42.626;23.382;2023-02-19T04:26:28;94712.97;;;5.71;100.00
10006;BME280;5042;42.626;23.382;2023-02-19T04:28:55;94727.03;;;5.61;100.00
10006;BME280;5042;42.626;23.382;2023-02-19T04:31:22;94723.25;;;5.55;100.00
10006;BME280;5042;42.626;23.382;2023-02-19T04:33:50;94728.97;;;5.59;100.00
10006;BME280;5042;42.626;23.382;2023-02-19T04:36:18;94729.28;;;5.56;100.00
10006;BME280;5042;42.626;23.382;2023-02-19T04:38:44;94718.53;;;5.50;100.00
10006;BME280;5042;42.626;23.382;2023-02-19T04:41:11;94738.41;;;5.60;100.00
10006;BME280;5042;42.626;23.382;2023-02-19T04:43:38;94731.84;;;5.73;100.00
10006;BME280;5042;42.626;23.382;2023-02-19T04:46:05;94732.97;;;5.71;100.00
10006;BME280;5042;42.626;23.382;2023-02-19T04:48:31;94724.50;;;5.69;100.00
10006;BME280;5042;42.626;23.382;2023-02-19T04:50:58;94727.47;;;5.74;100.00
10006;BME280;5042;42.626;23.382;2023-02-19T04:53:26;94725.31;;;5.69;100.00
10006;BME280;5042;42.626;23.382;2023-02-19T04:55:53;94717.91;;;5.57;100.00
10006;BME280;5042;42.626;23.382;2023-02-19T04:58:20;94728.38;;;5.47;100.00
10006;BME280;5042;42.626;23.382;2023-02-19T05:00:50;94727.19;;;5.59;100.00
10006;BME280;5042;42.626;23.382;2023-02-19T05:03:17;94737.75;;;5.58;100.00
10006;BME280;5042;42.626;23.382;2023-02-19T05:05:44;94737.75;;;5.58;100.00
10006;BME280;5042;42.626;23.382;2023-02-19T05:08:11;94737.16;;;5.64;100.00
10006;BME280;5042;42.626;23.382;2023-02-19T05:10:39;94742.34;;;5.64;100.00
10006;BME280;5042;42.626;23.382;2023-02-19T05:13:06;94747.50;;;5.56;100.00
10006;BME280;5042;42.626;23.382;2023-02-19T05:15:32;94741.94;;;5.50;100.00
10006;BME280;5042;42.626;23.382;2023-02-19T05:17:59;94746.50;;;5.57;100.00
10006;BME280;5042;42.626;23.382;2023-02-19T05:20:26;94740.06;;;5.61;100.00
10006;BME280;5042;42.626;23.382;2023-02-19T05:22:53;94745.03;;;5.72;100.00
10006;BME280;5042;42.626;23.382;2023-02-19T05:25:19;94747.69;;;5.80;100.00
10006;BME280;5042;42.626;23.382;2023-02-19T05:27:47;94747.72;;;5.88;100.00
10006;BME280;5042;42.626;23.382;2023-02-19T05:30:14;94754.53;;;5.99;100.00
10006;BME280;5042;42.626;23.382;2023-02-19T05:32:41;94757.44;;;6.22;100.00
10006;BME280;5042;42.626;23.382;2023-02-19T05:35:08;94762.75;;;6.12;100.00
10006;BME280;5042;42.626;23.382;2023-02-19T05:37:34;94762.13;;;6.19;100.00
10006;BME280;5042;42.626;23.382;2023-02-19T05:40:01;94753.47;;;6.10;100.00
10006;BME280;5042;42.626;23.382;2023-02-19T05:42:28;94758.56;;;6.20;100.00
10006;BME280;5042;42.626;23.382;2023-02-19T05:44:56;94761.28;;;6.70;100.00
10006;BME280;5042;42.626;23.382;2023-02-19T05:47:23;94761.75;;;7.00;100.00
10006;BME280;5042;42.626;23.382;2023-02-19T05:49:49;94748.25;;;7.21;100.00
10006;BME280;5042;42.626;23.382;2023-02-19T05:52:16;94757.94;;;7.53;100.00
10006;BME280;5042;42.626;23.382;2023-02-19T05:54:43;94763.03;;;7.88;100.00
10006;BME280;5042;42.626;23.382;2023-02-19T05:57:10;94758.97;;;8.10;96.49
10006;BME280;5042;42.626;23.382;2023-02-19T05:59:36;94762.19;;;8.44;92.99
10006;BME280;5042;42.626;23.382;2023-02-19T06:02:04;94773.09;;;8.64;92.64
10006;BME280;5042;42.626;23.382;2023-02-19T06:04:31;94769.09;;;8.85;90.97
10006;BME280;5042;42.626;23.382;2023-02-19T06:06:58;94768.66;;;9.21;90.03
10006;BME280;5042;42.626;23.382;2023-02-19T06:09:24;94773.34;;;9.80;85.31
10006;BME280;5042;42.626;23.382;2023-02-19T06:11:51;94788.09;;;10.42;79.71
10006;BME280;5042;42.626;23.382;2023-02-19T06:14:18;94792.06;;;10.90;75.27
10006;BME280;5042;42.626;23.382;2023-02-19T06:16:45;94794.66;;;11.20;73.29
10006;BME280;5042;42.626;23.382;2023-02-19T06:19:13;94792.13;;;11.41;70.80
10006;BME280;5042;42.626;23.382;2023-02-19T06:21:40;94790.84;;;11.74;69.64
10006;BME280;5042;42.626;23.382;2023-02-19T06:24:07;94788.72;;;11.99;65.70
10006;BME280;5042;42.626;23.382;2023-02-19T06:26:35;94790.78;;;12.25;64.41
10006;BME280;5042;42.626;23.382;2023-02-19T06:29:01;94794.56;;;12.44;64.58
10006;BME280;5042;42.626;23.382;2023-02-19T06:31:28;94791.03;;;12.58;62.08
10006;BME280;5042;42.626;23.382;2023-02-19T06:33:55;94791.03;;;12.58;61.58
10006;BME280;5042;42.626;23.382;2023-02-19T06:36:23;94799.19;;;12.42;62.39
10006;BME280;5042;42.626;23.382;2023-02-19T06:38:50;94806.69;;;12.45;62.30
10006;BME280;5042;42.626;23.382;2023-02-19T06:41:17;94771.81;;;12.29;62.15
10006;BME280;5042;42.626;23.382;2023-02-19T06:43:44;94802.41;;;12.65;63.24
10006;BME280;5042;42.626;23.382;2023-02-19T06:46:11;94803.06;;;12.74;62.50
10006;BME280;5042;42.626;23.382;2023-02-19T06:48:39;94801.97;;;12.90;61.30
10006;BME280;5042;42.626;23.382;2023-02-19T06:51:06;94789.59;;;12.84;59.50
10006;BME280;5042;42.626;23.382;2023-02-19T06:53:34;94800.81;;;12.99;59.36
10006;BME280;5042;42.626;23.382;2023-02-19T06:56:03;94809.63;;;12.85;59.08
10006;BME280;5042;42.626;23.382;2023-02-19T06:58:30;94811.78;;;12.75;59.75
10006;BME280;5042;42.626;23.382;2023-02-19T07:00:57;94806.56;;;12.53;60.79
10006;BME280;5042;42.626;23.382;2023-02-19T07:03:24;94794.06;;;12.34;61.26
10006;BME280;5042;42.626;23.382;2023-02-19T07:05:52;94801.84;;;12.20;61.57
10006;BME280;5042;42.626;23.382;2023-02-19T07:08:18;94783.84;;;11.81;63.17
10006;BME280;5042;42.626;23.382;2023-02-19T07:10:53;94712.19;;;11.29;63.98
10006;BME280;5042;42.626;23.382;2023-02-19T07:13:20;94807.22;;;11.91;64.01
10006;BME280;5042;42.626;23.382;2023-02-19T07:15:47;94809.47;;;11.79;64.18
10006;BME280;5042;42.626;23.382;2023-02-19T07:18:14;94803.41;;;11.78;64.27
10006;BME280;5042;42.626;23.382;2023-02-19T07:20:41;94808.94;;;11.83;64.06
10006;BME280;5042;42.626;23.382;2023-02-19T07:23:07;94799.19;;;11.77;64.02
10006;BME280;5042;42.626;23.382;2023-02-19T07:25:36;94729.59;;;11.30;64.22
10006;BME280;5042;42.626;23.382;2023-02-19T07:28:04;94784.88;;;11.65;65.12
10006;BME280;5042;42.626;23.382;2023-02-19T07:30:32;94790.19;;;11.50;64.83
10006;BME280;5042;42.626;23.382;2023-02-19T07:32:58;94776.53;;;11.40;65.19
10006;BME280;5042;42.626;23.382;2023-02-19T07:35:25;94785.34;;;11.32;65.52
10006;BME280;5042;42.626;23.382;2023-02-19T07:37:52;94782.50;;;11.34;65.63
10006;BME280;5042;42.626;23.382;2023-02-19T07:40:19;94781.97;;;11.38;65.64
10006;BME280;5042;42.626;23.382;2023-02-19T07:42:46;94777.25;;;11.34;66.09
10006;BME280;5042;42.626;23.382;2023-02-19T07:45:14;94776.63;;;11.32;66.13
10006;BME280;5042;42.626;23.382;2023-02-19T07:47:41;94774.84;;;11.32;65.90
10006;BME280;5042;42.626;23.382;2023-02-19T07:50:08;94771.47;;;11.38;66.02
10006;BME280;5042;42.626;23.382;2023-02-19T07:52:34;94782.22;;;11.43;66.08
10006;BME280;5042;42.626;23.382;2023-02-19T07:55:01;94780.44;;;11.44;66.88
10006;BME280;5042;42.626;23.382;2023-02-19T07:57:28;94782.13;;;11.52;65.33
10006;BME280;5042;42.626;23.382;2023-02-19T07:59:55;94775.53;;;11.56;65.66
10006;BME280;5042;42.626;23.382;2023-02-19T08:02:24;94769.59;;;11.68;65.35
10006;BME280;5042;42.626;23.382;2023-02-19T08:05:08;94765.97;;;11.91;64.59
10006;BME280;5042;42.626;23.382;2023-02-19T08:07:35;94774.28;;;12.38;63.72
10006;BME280;5042;42.626;23.382;2023-02-19T08:10:03;94769.50;;;13.11;61.46
10006;BME280;5042;42.626;23.382;2023-02-19T08:12:54;94757.03;;;13.81;57.67
10006;BME280;5042;42.626;23.382;2023-02-19T08:15:39;94778.78;;;14.56;55.79
10006;BME280;5042;42.626;23.382;2023-02-19T08:18:07;94778.91;;;15.21;53.36
10006;BME280;5042;42.626;23.382;2023-02-19T08:20:35;94756.16;;;16.04;51.28
10006;BME280;5042;42.626;23.382;2023-02-19T08:23:02;94773.41;;;16.38;48.18
10006;BME280;5042;42.626;23.382;2023-02-19T08:25:29;94779.47;;;16.95;48.53
10006;BME280;5042;42.626;23.382;2023-02-19T08:27:55;94782.22;;;17.26;46.46
10006;BME280;5042;42.626;23.382;2023-02-19T08:30:24;94781.47;;;17.55;46.18
10006;BME280;5042;42.626;23.382;2023-02-19T08:32:51;94784.25;;;17.60;43.87
10006;BME280;5042;42.626;23.382;2023-02-19T08:35:19;94781.06;;;17.89;43.81
10006;BME280;5042;42.626;23.382;2023-02-19T08:37:46;94787.03;;;18.14;42.16
10006;BME280;5042;42.626;23.382;2023-02-19T08:40:14;94790.19;;;17.74;43.48
10006;BME280;5042;42.626;23.382;2023-02-19T08:42:41;94796.72;;;18.09;42.97
10006;BME280;5042;42.626;23.382;2023-02-19T08:45:08;94790.84;;;18.49;42.24
10006;BME280;5042;42.626;23.382;2023-02-19T08:47:35;94769.56;;;17.95;43.64
10006;BME280;5042;42.626;23.382;2023-02-19T08:50:03;94776.34;;;17.91;43.17
10006;BME280;5042;42.626;23.382;2023-02-19T08:52:31;94763.22;;;17.47;42.90
10006;BME280;5042;42.626;23.382;2023-02-19T08:54:58;94779.84;;;17.36;45.03
10006;BME280;5042;42.626;23.382;2023-02-19T08:57:25;94779.56;;;17.44;43.16
10006;BME280;5042;42.626;23.382;2023-02-19T08:59:53;94714.56;;;16.86;43.09
10006;BME280;5042;42.626;23.382;2023-02-19T09:02:20;94767.47;;;17.48;43.70
10006;BME280;5042;42.626;23.382;2023-02-19T09:04:47;94757.31;;;17.82;43.12
10006;BME280;5042;42.626;23.382;2023-02-19T09:07:13;94752.56;;;17.35;43.06
10006;BME280;5042;42.626;23.382;2023-02-19T09:09:42;94755.19;;;17.54;43.76
10006;BME280;5042;42.626;23.382;2023-02-19T09:12:11;94748.66;;;17.38;42.84
10006;BME280;5042;42.626;23.382;2023-02-19T09:14:38;94739.59;;;17.09;44.21
10006;BME280;5042;42.626;23.382;2023-02-19T09:17:06;94731.88;;;17.26;43.68
10006;BME280;5042;42.626;23.382;2023-02-19T09:19:34;94722.78;;;17.52;44.61
10006;BME280;5042;42.626;23.382;2023-02-19T09:22:01;94730.53;;;18.14;43.83
10006;BME280;5042;42.626;23.382;2023-02-19T09:24:29;94728.38;;;18.70;42.08
10006;BME280;5042;42.626;23.382;2023-02-19T09:26:57;94732.22;;;19.09;43.42
10006;BME280;5042;42.626;23.382;2023-02-19T09:29:25;94730.00;;;18.71;43.35
10006;BME280;5042;42.626;23.382;2023-02-19T09:31:55;94729.00;;;18.83;43.43
10006;BME280;5042;42.626;23.382;2023-02-19T09:34:22;94729.47;;;18.80;41.90
10006;BME280;5042;42.626;23.382;2023-02-19T09:36:49;94720.09;;;18.66;42.16
10006;BME280;5042;42.626;23.382;2023-02-19T09:39:16;94722.16;;;18.52;42.41
10006;BME280;5042;42.626;23.382;2023-02-19T09:41:45;94725.47;;;18.36;41.72
10006;BME280;5042;42.626;23.382;2023-02-19T09:44:19;94731.19;;;18.09;42.96
10006;BME280;5042;42.626;23.382;2023-02-19T09:46:50;94722.66;;;17.47;43.10
10006;BME280;5042;42.626;23.382;2023-02-19T09:49:27;94717.44;;;17.22;44.05
10006;BME280;5042;42.626;23.382;2023-02-19T09:51:57;94712.25;;;16.97;45.43
10006;BME280;5042;42.626;23.382;2023-02-19T09:54:29;94711.78;;;16.81;45.38
10006;BME280;5042;42.626;23.382;2023-02-19T09:57:00;94710.38;;;16.53;44.93
10006;BME280;5042;42.626;23.382;2023-02-19T09:59:32;94695.50;;;16.34;45.70
10006;BME280;5042;42.626;23.382;2023-02-19T10:02:04;94693.44;;;16.36;46.25
10006;BME280;5042;42.626;23.382;2023-02-19T10:04:36;94692.41;;;16.37;45.46
10006;BME280;5042;42.626;23.382;2023-02-19T10:07:03;94684.75;;;16.04;46.56
10006;BME280;5042;42.626;23.382;2023-02-19T10:09:33;94683.19;;;15.96;46.69
10006;BME280;5042;42.626;23.382;2023-02-19T10:12:00;94670.41;;;15.93;47.05
10006;BME280;5042;42.626;23.382;2023-02-19T10:14:33;94669.22;;;15.89;47.02
10006;BME280;5042;42.626;23.382;2023-02-19T10:17:04;94656.66;;;15.78;46.86
10006;BME280;5042;42.626;23.382;2023-02-19T10:19:31;94664.16;;;15.87;47.08
10006;BME280;5042;42.626;23.382;2023-02-19T10:21:59;94654.69;;;15.98;46.58
10006;BME280;5042;42.626;23.382;2023-02-19T10:24:28;94653.09;;;15.97;46.76
10006;BME280;5042;42.626;23.382;2023-02-19T10:26:56;94653.09;;;15.97;47.04
10006;BME280;5042;42.626;23.382;2023-02-19T10:29:23;94646.81;;;15.92;47.62
10006;BME280;5042;42.626;23.382;2023-02-19T10:32:17;94639.59;;;15.80;48.29
10006;BME280;5042;42.626;23.382;2023-02-19T10:34:47;94637.38;;;15.77;47.39
10006;BME280;5042;42.626;23.382;2023-02-19T10:37:15;94631.28;;;15.77;47.15
10006;BME280;5042;42.626;23.382;2023-02-19T10:39:44;94624.53;;;15.81;47.46
10006;BME280;5042;42.626;23.382;2023-02-19T10:42:17;94616.66;;;15.74;47.67
10006;BME280;5042;42.626;23.382;2023-02-19T10:44:47;94619.75;;;15.64;46.72
10006;BME280;5042;42.626;23.382;2023-02-19T10:47:19;94608.47;;;15.51;47.36
10006;BME280;5042;42.626;23.382;2023-02-19T10:49:48;94598.06;;;15.56;46.98
10006;BME280;5042;42.626;23.382;2023-02-19T10:52:19;94600.94;;;15.54;47.07
10006;BME280;5042;42.626;23.382;2023-02-19T10:54:54;94584.72;;;15.44;46.97
10006;BME280;5042;42.626;23.382;2023-02-19T10:57:27;94594.00;;;15.53;47.62
10006;BME280;5042;42.626;23.382;2023-02-19T11:00:00;94568.06;;;15.43;47.45
10006;BME280;5042;42.626;23.382;2023-02-19T11:02:30;94586.00;;;15.66;47.64
10006;BME280;5042;42.626;23.382;2023-02-19T11:05:16;94572.28;;;15.83;48.52
10006;BME280;5042;42.626;23.382;2023-02-19T11:07:46;94564.09;;;15.84;47.66
10006;BME280;5042;42.626;23.382;2023-02-19T11:10:35;94557.66;;;15.80;47.54
10006;BME280;5042;42.626;23.382;2023-02-19T11:13:05;94560.56;;;15.97;47.35
10006;BME280;5042;42.626;23.382;2023-02-19T11:15:34;94545.50;;;15.98;46.74
10006;BME280;5042;42.626;23.382;2023-02-19T11:18:06;94533.13;;;15.92;47.12
10006;BME280;5042;42.626;23.382;2023-02-19T11:20:36;94550.56;;;15.99;47.27
10006;BME280;5042;42.626;23.382;2023-02-19T11:23:09;94543.66;;;15.98;46.21
10006;BME280;5042;42.626;23.382;2023-02-19T11:25:44;94540.25;;;15.91;46.36
10006;BME280;5042;42.626;23.382;2023-02-19T11:28:22;94534.53;;;15.94;46.64
10006;BME280;5042;42.626;23.382;2023-02-19T11:30:49;94535.72;;;15.98;45.97
10006;BME280;5042;42.626;23.382;2023-02-19T11:33:25;94525.88;;;16.05;46.47
10006;BME280;5042;42.626;23.382;2023-02-19T11:35:59;94525.44;;;15.90;46.05
10006;BME280;5042;42.626;23.382;2023-02-19T11:38:26;94525.69;;;15.82;46.51
10006;BME280;5042;42.626;23.382;2023-02-19T11:40:59;94517.78;;;15.82;46.13
10006;BME280;5042;42.626;23.382;2023-02-19T11:43:54;94520.56;;;15.87;45.65
10006;BME280;5042;42.626;23.382;2023-02-19T11:46:28;94504.69;;;15.87;46.39
10006;BME280;5042;42.626;23.382;2023-02-19T11:49:08;94496.78;;;15.87;45.75
10006;BME280;5042;42.626;23.382;2023-02-19T11:51:58;94492.66;;;15.91;45.44
10006;BME280;5042;42.626;23.382;2023-02-19T11:54:45;94491.81;;;15.97;45.44
10006;BME280;5042;42.626;23.382;2023-02-19T11:57:29;94486.66;;;16.02;45.38
10006;BME280;5042;42.626;23.382;2023-02-19T12:00:23;94489.44;;;16.07;45.34
10006;BME280;5042;42.626;23.382;2023-02-19T12:03:26;94483.78;;;16.04;45.67
10006;BME280;5042;42.626;23.382;2023-02-19T12:06:07;94479.75;;;16.01;45.65
10006;BME280;5042;42.626;23.382;2023-02-19T12:09:14;94473.38;;;16.09;45.09
10006;BME280;5042;42.626;23.382;2023-02-19T12:11:59;94468.66;;;16.11;45.43
10006;BME280;5042;42.626;23.382;2023-02-19T12:15:09;94469.25;;;16.13;45.94
10006;BME280;5042;42.626;23.382;2023-02-19T12:18:08;94467.31;;;16.20;45.40
10006;BME280;5042;42.626;23.382;2023-02-19T12:20:42;94463.72;;;16.33;45.48
10006;BME280;5042;42.626;23.382;2023-02-19T12:23:42;94453.75;;;16.35;45.07
10006;BME280;5042;42.626;23.382;2023-02-19T12:26:21;94450.44;;;16.40;44.66
10006;BME280;5042;42.626;23.382;2023-02-19T12:29:15;94443.03;;;16.42;45.74
10006;BME280;5042;42.626;23.382;2023-02-19T12:32:10;94444.31;;;16.39;44.16
10006;BME280;5042;42.626;23.382;2023-02-19T12:37:49;94418.69;;;16.40;44.24
10006;BME280;5042;42.626;23.382;2023-02-19T12:40:33;94425.41;;;16.54;44.16
10006;BME280;5042;42.626;23.382;2023-02-19T12:43:11;94408.34;;;16.50;46.15
10006;BME280;5042;42.626;23.382;2023-02-19T12:45:43;94403.47;;;16.35;44.88
10006;BME280;5042;42.626;23.382;2023-02-19T12:48:19;94406.97;;;16.47;42.96
10006;BME280;5042;42.626;23.382;2023-02-19T12:50:54;94409.75;;;16.52;44.78
10006;BME280;5042;42.626;23.382;2023-02-19T12:53:38;94361.81;;;16.30;44.30
10006;BME280;5042;42.626;23.382;2023-02-19T12:56:13;94391.69;;;16.49;44.39
10006;BME280;5042;42.626;23.382;2023-02-19T12:58:44;94364.75;;;16.52;43.06
10006;BME280;5042;42.626;23.382;2023-02-19T13:01:18;94372.22;;;16.56;43.22
10006;BME280;5042;42.626;23.382;2023-02-19T13:03:50;94343.63;;;16.34;44.09
10006;BME280;5042;42.626;23.382;2023-02-19T13:06:29;94366.06;;;16.73;44.35
10006;BME280;5042;42.626;23.382;2023-02-19T13:09:01;94359.97;;;16.73;43.86
10006;BME280;5042;42.626;23.382;2023-02-19T13:11:32;94364.16;;;16.81;44.16
10006;BME280;5042;42.626;23.382;2023-02-19T13:14:04;94336.69;;;16.75;42.19
10006;BME280;5042;42.626;23.382;2023-02-19T13:16:37;94359.69;;;16.93;42.09
10006;BME280;5042;42.626;23.382;2023-02-19T13:19:05;94359.56;;;17.00;41.76
10006;BME280;5042;42.626;23.382;2023-02-19T13:21:34;94353.00;;;17.14;42.26
10006;BME280;5042;42.626;23.382;2023-02-19T13:24:22;94348.72;;;17.36;42.45
10006;BME280;5042;42.626;23.382;2023-02-19T13:27:02;94343.09;;;17.45;41.87
10006;BME280;5042;42.626;23.382;2023-02-19T13:29:43;94340.91;;;17.42;41.33